This is the latest recevied weather packets stored in our database for station/object N5ATR. If no packets are shown the sender has not sent any weather packets the latest 1 day(s).
| Time | Temp. | Humidity | Pressure | Rain* | Wind** | Luminosity | Snow |
|---|---|---|---|---|---|---|---|
| 1778010462 | 12.22° C | 64% | 1010.8 hPa | 0 mm | 3.58 m/s, 250° | 997 W/m² | - |
| 1778010158 | 12.78° C | 67% | 1010.6 hPa | 0 mm | 4.02 m/s, 232° | 817 W/m² | - |
| 1778009854 | 11.67° C | 74% | 1010.9 hPa | 0 mm | 3.58 m/s, 280° | 810 W/m² | - |
| 1778009552 | 11.11° C | 80% | 1010.8 hPa | 0 mm | 2.68 m/s, 264° | 701 W/m² | - |
| 1778009250 | 11.11° C | 86% | 1010.9 hPa | 0 mm | 2.24 m/s, 290° | 871 W/m² | - |
| 1778008947 | 10° C | 89% | 1011.1 hPa | 0 mm | 1.79 m/s, 239° | 849 W/m² | - |
| 1778008645 | 10° C | 91% | 1010.9 hPa | 1.27 mm | 2.24 m/s, 235° | 791 W/m² | - |
| 1778008344 | 8.89° C | 90% | 1011.1 hPa | 1.27 mm | 1.34 m/s, 217° | 478 W/m² | - |
| 1778008040 | 9.44° C | 83% | 1011.3 hPa | 0 mm | 4.47 m/s, 234° | 169 W/m² | - |
| 1778007739 | 11.11° C | 74% | 1010.9 hPa | 0 mm | 3.58 m/s, 152° | 138 W/m² | - |
| 1778007436 | 11.67° C | 60% | 1011.1 hPa | 0 mm | 2.68 m/s, 218° | 187 W/m² | - |
| 1778007133 | 12.78° C | 57% | 1010.8 hPa | 0 mm | 4.92 m/s, 257° | 204 W/m² | - |
| 1778006829 | 13.89° C | 55% | 1010.8 hPa | 0 mm | 3.58 m/s, 231° | 341 W/m² | - |
| 1778006527 | 13.33° C | 52% | 1010.6 hPa | 0 mm | 3.58 m/s, 212° | 955 W/m² | - |
| 1778006223 | 13.89° C | 54% | 1010.8 hPa | 0 mm | 2.68 m/s, 254° | 302 W/m² | - |
| 1778005920 | 13.33° C | 53% | 1010.8 hPa | 0 mm | 4.02 m/s, 251° | 397 W/m² | - |
| 1778005616 | 13.89° C | 55% | 1010.8 hPa | 0 mm | 2.24 m/s, 214° | 529 W/m² | - |
| 1778005314 | 13.33° C | 55% | 1011.1 hPa | 0 mm | 3.58 m/s, 252° | 368 W/m² | - |
| 1778005010 | 13.33° C | 55% | 1011.2 hPa | 0 mm | 2.68 m/s, 222° | 533 W/m² | - |
| 1778004708 | 13.33° C | 55% | 1011.1 hPa | 0 mm | 1.79 m/s, 209° | 387 W/m² | - |
| 1778004403 | 13.33° C | 54% | 1010.9 hPa | 0 mm | 2.24 m/s, 237° | 317 W/m² | - |
| 1778004101 | 13.89° C | 52% | 1010.9 hPa | 0 mm | 2.68 m/s, 229° | 503 W/m² | - |
| 1778003797 | 12.78° C | 54% | 1010.9 hPa | 0 mm | 1.34 m/s, 133° | 337 W/m² | - |
| 1778003493 | 12.78° C | 55% | 1011.1 hPa | 0 mm | 1.34 m/s, 247° | 313 W/m² | - |
| 1778003190 | 13.33° C | 53% | 1011.1 hPa | 0 mm | 1.34 m/s, 225° | 320 W/m² | - |
* Rain latest hour (hover to see other rain measurements)
** Current wind speed in m/s (hover to see current wind gust speed)